Time;durP1;ratioP1;P1;durP2;ratioP2;P2;SDS_P1;SDS_P2;PMS_P1;PMS_P2;Temp;Humidity;BMP_temperature;BMP_pressure;BME280_temperature;BME280_humidity;BME280_pressure;Samples;Min_cycle;Max_cycle;Signal;HPM_P1;HPM_P2
2023/01/27 00:00:25;;;;;;;30.90;14.57;;;;;;;0.12;100.00;99775.97;5076469;28;20284;-78
2023/01/27 00:02:51;;;;;;;32.03;14.00;;;;;;;0.10;100.00;99782.31;5076266;28;20257;-78
2023/01/27 00:05:17;;;;;;;31.87;14.03;;;;;;;0.00;100.00;99772.44;5076215;28;20028;-78
2023/01/27 00:07:46;;;;;;;27.13;12.37;;;;;;;0.02;100.00;99774.97;5076128;28;20032;-78
2023/01/27 00:10:16;;;;;;;31.00;14.20;;;;;;;0.05;100.00;99776.53;5076148;28;20017;-79
2023/01/27 00:15:28;;;;;;;27.90;11.97;;;;;;;0.11;100.00;99762.97;5076227;28;20268;-79
2023/01/27 00:17:54;;;;;;;23.43;11.27;;;;;;;0.16;100.00;99751.13;5075859;28;20257;-79
2023/01/27 00:25:49;;;;;;;16.03;7.73;;;;;;;0.19;100.00;99764.06;5075991;28;20302;-78
2023/01/27 00:28:22;;;;;;;15.87;7.50;;;;;;;0.12;100.00;99752.31;5057573;28;20624;-78
2023/01/27 00:30:49;;;;;;;16.00;7.68;;;;;;;0.15;100.00;99757.34;5057788;28;20058;-78
2023/01/27 00:33:24;;;;;;;16.00;7.67;;;;;;;0.11;100.00;99750.66;5058144;28;20032;-79
2023/01/27 00:35:58;;;;;;;15.93;7.60;;;;;;;0.10;100.00;99756.88;5075867;28;20276;-78
2023/01/27 00:38:25;;;;;;;;;;;;;;;0.09;100.00;99762.22;5076164;28;20314;-79
2023/01/27 00:43:35;;;;;;;19.63;9.10;;;;;;;-0.03;100.00;99756.94;5075840;28;20247;-78
2023/01/27 00:46:00;;;;;;;20.17;9.63;;;;;;;0.03;100.00;99758.25;5075723;28;20344;-78
2023/01/27 00:48:27;;;;;;;21.67;9.87;;;;;;;0.05;100.00;99761.63;5075646;28;20021;-79
2023/01/27 00:50:52;;;;;;;18.20;9.80;;;;;;;0.09;100.00;99763.06;5075482;28;20035;-78
2023/01/27 00:53:18;;;;;;;15.77;8.10;;;;;;;0.13;100.00;99768.91;5075524;28;20257;-79
2023/01/27 00:55:43;;;;;;;15.13;7.50;;;;;;;0.13;100.00;99761.88;5075752;28;20029;-79
2023/01/27 00:58:08;;;;;;;14.17;7.43;;;;;;;0.11;100.00;99774.31;5075474;28;20025;-78
2023/01/27 01:00:34;;;;;;;16.37;7.83;;;;;;;0.03;100.00;99773.19;5075104;28;20080;-78
2023/01/27 01:02:59;;;;;;;16.33;7.47;;;;;;;-0.02;100.00;99773.53;5057354;28;20032;-78
2023/01/27 01:05:26;;;;;;;19.23;9.10;;;;;;;0.05;100.00;99781.78;5057391;28;20031;-78
2023/01/27 01:07:51;;;;;;;19.00;8.37;;;;;;;-0.03;100.00;99772.72;5057245;28;20024;-78
2023/01/27 01:10:17;;;;;;;14.13;7.57;;;;;;;0.08;100.00;99784.22;5074078;28;20277;-78
2023/01/27 01:12:43;;;;;;;14.03;7.60;;;;;;;0.19;100.00;99778.97;5056937;28;20032;-78
2023/01/27 01:15:09;;;;;;;14.57;8.37;;;;;;;0.08;100.00;99771.06;5074884;28;20036;-78
2023/01/27 01:17:34;;;;;;;14.47;6.90;;;;;;;0.03;100.00;99773.19;5074766;28;20050;-78
2023/01/27 01:20:01;;;;;;;14.43;7.50;;;;;;;0.10;100.00;99784.94;5056820;28;20258;-79
2023/01/27 01:22:26;;;;;;;13.50;6.70;;;;;;;0.09;100.00;99784.09;5056766;28;20030;-78
2023/01/27 01:24:52;;;;;;;13.67;7.17;;;;;;;0.05;100.00;99780.00;5056801;28;20267;-78
2023/01/27 01:27:17;;;;;;;13.73;6.97;;;;;;;0.06;100.00;99778.22;5074764;28;20024;-78
2023/01/27 01:29:43;;;;;;;15.03;7.00;;;;;;;0.06;100.00;99773.81;5074546;28;20032;-79
2023/01/27 01:32:08;;;;;;;14.23;6.50;;;;;;;0.02;100.00;99766.25;5074660;28;20028;-78
2023/01/27 01:34:35;;;;;;;12.57;6.10;;;;;;;0.02;100.00;99774.97;5056788;28;20399;-78
2023/01/27 01:37:01;;;;;;;12.20;6.03;;;;;;;0.02;100.00;99779.38;5074527;28;20486;-78
2023/01/27 01:39:29;;;;;;;12.13;6.30;;;;;;;-0.04;100.00;99775.44;5074548;28;20268;-78
2023/01/27 01:41:55;;;;;;;12.13;6.23;;;;;;;-0.01;100.00;99776.06;5074546;28;20024;-78
2023/01/27 01:44:26;;;;;;;12.03;5.73;;;;;;;0.15;100.00;99773.09;5074510;28;20257;-79
2023/01/27 01:46:52;;;;;;;10.90;5.50;;;;;;;0.14;100.00;99763.53;5074266;28;20028;-78
2023/01/27 01:49:35;;;;;;;11.00;5.37;;;;;;;0.21;100.00;99761.31;5074340;28;20273;-78
2023/01/27 01:52:07;;;;;;;10.65;5.10;;;;;;;0.26;100.00;99767.88;5056417;28;20127;-78
2023/01/27 01:54:37;;;;;;;9.73;5.30;;;;;;;0.21;100.00;99767.41;5074206;28;20395;-78
2023/01/27 01:57:21;;;;;;;11.83;5.53;;;;;;;0.12;100.00;99765.44;5074409;28;20268;-78
2023/01/27 01:59:59;;;;;;;10.63;5.47;;;;;;;0.11;100.00;99760.34;5074210;28;20277;-78
2023/01/27 02:02:25;;;;;;;10.63;5.23;;;;;;;0.14;100.00;99765.34;5074087;28;20352;-78
2023/01/27 02:05:07;;;;;;;10.00;5.23;;;;;;;0.10;100.00;99761.28;5074210;28;20293;-79
2023/01/27 02:07:39;;;;;;;10.50;5.20;;;;;;;0.07;100.00;99753.63;5074018;28;20025;-79
2023/01/27 02:10:06;;;;;;;10.60;5.03;;;;;;;-0.04;100.00;99746.53;5056186;28;20277;-78
2023/01/27 02:12:31;;;;;;;10.73;5.57;;;;;;;0.01;100.00;99757.53;5056090;28;20756;-78
2023/01/27 02:14:57;;;;;;;10.70;5.50;;;;;;;0.04;100.00;99754.69;5073945;28;20352;-78
2023/01/27 02:17:23;;;;;;;11.03;5.60;;;;;;;0.05;100.00;99752.91;5074019;28;20074;-78
2023/01/27 02:20:04;;;;;;;11.90;6.00;;;;;;;0.05;100.00;99751.09;5073806;28;20024;-78
2023/01/27 02:22:42;;;;;;;10.17;5.70;;;;;;;0.08;100.00;99752.66;5073600;28;20111;-78
2023/01/27 02:25:37;;;;;;;10.77;5.37;;;;;;;0.02;100.00;99748.69;5073682;28;20265;-79
2023/01/27 02:28:07;;;;;;;11.67;5.63;;;;;;;0.16;100.00;99755.56;5018680;28;20747;-78
2023/01/27 02:30:34;;;;;;;10.07;5.47;;;;;;;0.09;100.00;99749.09;5073480;28;20285;-78
2023/01/27 02:32:59;;;;;;;11.30;5.20;;;;;;;0.14;100.00;99755.66;5073435;28;20360;-78
2023/01/27 02:35:35;;;;;;;10.07;5.30;;;;;;;0.03;100.00;99755.63;5073567;28;20337;-79
2023/01/27 02:38:06;;;;;;;9.87;5.40;;;;;;;0.13;100.00;99748.72;5073735;28;20028;-78
2023/01/27 02:40:35;;;;;;;10.60;5.53;;;;;;;0.04;100.00;99757.31;5073523;28;20268;-78
2023/01/27 02:43:04;;;;;;;10.23;5.47;;;;;;;0.03;100.00;99737.25;5073355;28;20265;-79
2023/01/27 02:45:30;;;;;;;11.70;6.10;;;;;;;-0.02;100.00;99752.53;5073302;28;20265;-78
2023/01/27 02:47:56;;;;;;;11.63;5.70;;;;;;;0.10;100.00;99756.03;5073352;28;20325;-78
2023/01/27 02:50:21;;;;;;;10.03;5.57;;;;;;;0.17;100.00;99750.19;5073123;28;20273;-78
2023/01/27 02:52:47;;;;;;;11.90;5.73;;;;;;;0.16;100.00;99756.41;5073231;28;20033;-78
2023/01/27 02:55:12;;;;;;;12.43;6.33;;;;;;;-0.04;100.00;99744.75;5060012;28;20398;-78
2023/01/27 02:57:38;;;;;;;11.70;5.67;;;;;;;0.10;100.00;99743.72;5093346;28;20113;-78
2023/01/27 03:00:04;;;;;;;11.73;5.67;;;;;;;0.00;100.00;99735.69;5093078;28;20509;-78
2023/01/27 03:02:29;;;;;;;13.23;6.50;;;;;;;-0.08;100.00;99731.94;5075143;28;20027;-78
2023/01/27 03:04:56;;;;;;;12.00;6.47;;;;;;;-0.02;100.00;99732.34;5093139;28;20028;-78
2023/01/27 03:07:22;;;;;;;11.00;5.50;;;;;;;-0.01;100.00;99727.94;5093035;28;20503;-78
2023/01/27 03:09:49;;;;;;;11.17;6.10;;;;;;;0.02;100.00;99721.59;5092876;28;20281;-78
2023/01/27 03:12:20;;;;;;;13.40;6.50;;;;;;;-0.05;100.00;99729.94;5092988;28;20268;-78
2023/01/27 03:20:20;;;;;;;12.97;6.40;;;;;;;0.00;100.00;99713.84;5093243;28;20256;-79
2023/01/27 03:22:47;;;;;;;14.63;6.60;;;;;;;-0.01;100.00;99713.00;5093241;28;20256;-78
2023/01/27 03:25:12;;;;;;;13.67;6.50;;;;;;;0.06;100.00;99725.66;5074966;28;20257;-79
2023/01/27 03:27:38;;;;;;;13.20;6.50;;;;;;;0.00;100.00;99714.66;5093101;28;20853;-78
2023/01/27 03:30:05;;;;;;;12.00;6.70;;;;;;;-0.05;100.00;99715.97;5092765;28;20475;-79
2023/01/27 03:32:32;;;;;;;12.57;6.57;;;;;;;0.13;100.00;99716.34;5092687;28;20081;-78
2023/01/27 03:35:00;;;;;;;14.70;7.33;;;;;;;0.02;100.00;99703.19;5092945;28;20265;-78
2023/01/27 03:48:35;;;;;;;13.30;6.23;;;;;;;0.06;100.00;99702.84;5092908;28;20259;-78
2023/01/27 03:51:07;;;;;;;15.20;7.53;;;;;;;0.05;100.00;99711.69;5092853;28;20643;-78
2023/01/27 03:53:36;;;;;;;14.90;7.03;;;;;;;0.06;100.00;99704.66;5092912;28;20310;-78
2023/01/27 03:56:06;;;;;;;14.13;7.27;;;;;;;-0.01;100.00;99697.25;5092820;28;20273;-78
2023/01/27 03:58:34;;;;;;;15.40;8.13;;;;;;;0.03;100.00;99686.47;5092554;28;20249;-79
2023/01/27 04:01:02;;;;;;;16.20;7.33;;;;;;;0.09;100.00;99699.16;5092823;28;20685;-78
2023/01/27 04:09:07;;;;;;;14.30;7.77;;;;;;;0.05;100.00;99669.66;5092648;28;20255;-78
2023/01/27 04:14:17;;;;;;;15.80;8.33;;;;;;;0.05;100.00;99690.69;5092664;28;20255;-78
2023/01/27 04:16:43;;;;;;;14.90;7.83;;;;;;;0.11;100.00;99698.09;5092574;28;20257;-78
2023/01/27 04:19:11;;;;;;;16.00;8.10;;;;;;;0.05;100.00;99692.47;5092558;28;20036;-78
2023/01/27 04:21:37;;;;;;;15.70;7.53;;;;;;;0.05;100.00;99697.72;5092405;28;20272;-79
2023/01/27 04:24:07;;;;;;;15.03;7.30;;;;;;;0.11;100.00;99706.00;5074281;28;20268;-79
2023/01/27 04:26:34;;;;;;;14.73;7.57;;;;;;;0.03;100.00;99710.97;5092405;28;20321;-79
2023/01/27 04:29:01;;;;;;;16.40;8.23;;;;;;;-0.05;100.00;99710.72;5074125;28;20631;-79
2023/01/27 04:31:29;;;;;;;16.13;7.57;;;;;;;-0.05;100.00;99713.34;5092238;28;20743;-79
2023/01/27 04:33:55;;;;;;;16.33;8.53;;;;;;;-0.06;100.00;99723.00;5092329;28;20306;-79
2023/01/27 04:36:20;;;;;;;16.53;8.90;;;;;;;-0.04;100.00;99718.47;5092180;28;20485;-79
2023/01/27 04:38:46;;;;;;;14.73;7.90;;;;;;;-0.14;100.00;99711.41;5092390;28;20024;-78
2023/01/27 04:41:12;;;;;;;18.30;9.10;;;;;;;-0.19;100.00;99708.28;5092209;28;20020;-79
2023/01/27 04:43:37;;;;;;;17.70;8.67;;;;;;;-0.17;100.00;99719.50;5092492;28;20526;-79
2023/01/27 04:46:04;;;;;;;15.10;8.40;;;;;;;-0.18;100.00;99720.47;5095035;28;20032;-79
2023/01/27 04:48:29;;;;;;;17.27;7.97;;;;;;;-0.12;100.00;99720.84;5096043;28;20077;-78
2023/01/27 04:50:56;;;;;;;15.47;7.93;;;;;;;-0.14;100.00;99719.28;5095691;28;20284;-79
2023/01/27 04:53:21;;;;;;;16.93;7.90;;;;;;;-0.21;100.00;99711.00;5095769;28;20081;-78
2023/01/27 04:55:48;;;;;;;16.80;8.43;;;;;;;-0.10;100.00;99718.09;5095580;28;20268;-79
2023/01/27 04:58:16;;;;;;;17.83;8.93;;;;;;;-0.14;100.00;99716.66;5095558;28;20028;-78
2023/01/27 05:00:44;;;;;;;16.97;7.90;;;;;;;-0.03;100.00;99725.41;5095425;28;20283;-78
2023/01/27 05:03:10;;;;;;;17.47;8.67;;;;;;;-0.05;100.00;99716.81;5095429;28;20275;-78
2023/01/27 05:05:37;;;;;;;16.93;8.23;;;;;;;-0.02;100.00;99728.88;5095389;28;20673;-78
2023/01/27 05:08:09;;;;;;;17.80;8.07;;;;;;;-0.02;100.00;99727.09;5095582;28;20032;-78
2023/01/27 05:10:35;;;;;;;16.67;8.57;;;;;;;-0.02;100.00;99713.97;5095574;28;20773;-78
2023/01/27 05:13:01;;;;;;;16.97;8.73;;;;;;;0.03;100.00;99718.00;5077337;28;20272;-78
2023/01/27 05:15:28;;;;;;;14.50;7.77;;;;;;;0.05;100.00;99718.75;5095506;28;20256;-78
2023/01/27 05:17:54;;;;;;;17.33;8.50;;;;;;;0.02;100.00;99724.22;5095288;28;20394;-79
2023/01/27 05:20:21;;;;;;;17.93;8.67;;;;;;;0.06;100.00;99720.41;5095346;28;20276;-79
2023/01/27 05:22:49;;;;;;;14.07;7.13;;;;;;;0.15;100.00;99710.03;5077277;28;20024;-78
2023/01/27 05:25:15;;;;;;;17.20;8.10;;;;;;;0.15;100.00;99724.97;5095100;28;20330;-78
2023/01/27 05:27:40;;;;;;;17.37;8.50;;;;;;;0.11;100.00;99723.53;5095316;28;20670;-78
2023/01/27 05:30:08;;;;;;;22.70;9.60;;;;;;;0.18;100.00;99728.22;5095082;28;20497;-78
2023/01/27 05:32:33;;;;;;;18.23;8.60;;;;;;;0.07;100.00;99717.66;5095110;28;20031;-78
2023/01/27 05:34:58;;;;;;;15.47;8.57;;;;;;;0.09;100.00;99720.19;5095000;28;20260;-78
2023/01/27 05:37:24;;;;;;;18.70;9.10;;;;;;;0.18;100.00;99724.75;5094907;28;20495;-78
2023/01/27 05:39:49;;;;;;;18.10;8.50;;;;;;;0.11;100.00;99727.00;5076609;28;20035;-78
2023/01/27 05:42:15;;;;;;;18.97;8.97;;;;;;;0.17;100.00;99723.91;5094600;28;20035;-78
2023/01/27 05:44:40;;;;;;;17.20;8.43;;;;;;;0.10;100.00;99725.34;5094662;28;20256;-78
2023/01/27 05:47:12;;;;;;;16.93;8.60;;;;;;;0.18;100.00;99722.13;5094708;28;20115;-78
2023/01/27 05:49:37;;;;;;;17.07;8.70;;;;;;;0.11;100.00;99720.91;5094770;28;20391;-78
2023/01/27 05:52:03;;;;;;;19.77;8.80;;;;;;;0.20;100.00;99717.59;5094753;28;20275;-78
2023/01/27 05:54:29;;;;;;;18.33;8.53;;;;;;;0.20;100.00;99720.22;5094817;28;20102;-78
2023/01/27 05:56:57;;;;;;;21.40;9.73;;;;;;;0.11;100.00;99719.13;5094254;28;20097;-78
2023/01/27 05:59:23;;;;;;;18.23;8.77;;;;;;;0.11;100.00;99736.69;5076162;28;20044;-78
2023/01/27 06:01:52;;;;;;;18.60;8.73;;;;;;;0.14;100.00;99715.41;5094656;28;20292;-78
2023/01/27 06:04:18;;;;;;;17.80;8.93;;;;;;;0.14;100.00;99728.53;5094434;28;20322;-78
2023/01/27 06:06:47;;;;;;;19.93;8.50;;;;;;;0.10;100.00;99722.72;5076346;28;20268;-78
2023/01/27 06:09:13;;;;;;;18.10;8.60;;;;;;;0.09;100.00;99728.91;5094211;28;20517;-78
2023/01/27 06:11:38;;;;;;;20.33;9.20;;;;;;;0.06;100.00;99738.81;5094244;28;20289;-78
2023/01/27 06:14:03;;;;;;;19.63;9.90;;;;;;;0.07;100.00;99743.13;5094099;28;20031;-78
2023/01/27 06:16:32;;;;;;;17.17;8.90;;;;;;;0.20;100.00;99746.50;5094141;28;20039;-78
2023/01/27 06:18:58;;;;;;;21.93;9.17;;;;;;;0.23;100.00;99752.34;5094003;28;20031;-78
2023/01/27 06:21:27;;;;;;;18.57;9.40;;;;;;;0.11;100.00;99744.56;5094222;28;20314;-78
2023/01/27 06:23:52;;;;;;;19.37;9.10;;;;;;;0.14;100.00;99754.81;5093965;28;20280;-78
2023/01/27 06:26:20;;;;;;;19.27;9.23;;;;;;;0.20;100.00;99746.50;5094055;28;20260;-78
2023/01/27 06:28:46;;;;;;;18.27;9.33;;;;;;;0.12;100.00;99751.47;5093972;28;20524;-78
2023/01/27 06:31:17;;;;;;;18.73;9.20;;;;;;;0.10;100.00;99748.16;5093731;28;20288;-78
2023/01/27 06:33:43;;;;;;;18.30;8.70;;;;;;;0.19;100.00;99753.53;5093942;28;20382;-79
2023/01/27 06:36:12;;;;;;;20.10;8.70;;;;;;;0.09;100.00;99746.47;5093914;28;20256;-78
2023/01/27 06:38:38;;;;;;;21.33;9.63;;;;;;;0.12;100.00;99743.59;5093723;28;20165;-78
2023/01/27 06:41:06;;;;;;;22.83;9.50;;;;;;;0.17;100.00;99744.09;5093769;28;20719;-78
2023/01/27 06:43:31;;;;;;;20.57;9.10;;;;;;;0.11;100.00;99740.16;5093313;28;20055;-78
2023/01/27 06:45:59;;;;;;;21.17;9.03;;;;;;;0.18;100.00;99743.97;5075529;28;20272;-78
2023/01/27 06:48:25;;;;;;;18.70;9.13;;;;;;;0.16;100.00;99753.75;5093503;28;20027;-78
2023/01/27 06:50:52;;;;;;;19.40;9.27;;;;;;;0.12;100.00;99746.22;5093420;28;20728;-78
2023/01/27 06:53:18;;;;;;;18.63;8.80;;;;;;;0.15;100.00;99746.81;5093402;28;20627;-79
2023/01/27 06:55:46;;;;;;;18.40;8.90;;;;;;;0.15;100.00;99756.50;5093296;28;20263;-78
2023/01/27 06:58:14;;;;;;;19.50;9.67;;;;;;;0.10;100.00;99750.78;5074948;28;20083;-78
2023/01/27 07:00:40;;;;;;;21.60;9.80;;;;;;;0.19;100.00;99757.97;5073274;28;20632;-81
2023/01/27 07:03:10;;;;;;;19.53;9.33;;;;;;;0.24;100.00;99758.44;5072963;28;20261;-80
2023/01/27 07:05:37;;;;;;;23.27;10.47;;;;;;;0.17;100.00;99746.72;5072979;28;20257;-80
2023/01/27 07:08:08;;;;;;;22.33;9.93;;;;;;;0.10;100.00;99746.34;5072323;28;20272;-80
2023/01/27 07:10:34;;;;;;;21.40;9.97;;;;;;;0.18;100.00;99761.53;5073159;28;20393;-79
2023/01/27 07:13:07;;;;;;;21.53;9.30;;;;;;;0.18;100.00;99767.63;5054917;28;20270;-76
2023/01/27 07:15:33;;;;;;;;;;;;;;;0.14;100.00;99770.59;5072165;28;20028;-77
2023/01/27 07:18:02;;;;;;;19.47;9.73;;;;;;;0.24;100.00;99761.06;5071397;28;19919;-76
2023/01/27 07:20:28;;;;;;;20.13;9.87;;;;;;;0.22;100.00;99761.19;5071586;28;20021;-76
2023/01/27 07:22:58;;;;;;;20.20;9.53;;;;;;;0.26;100.00;99759.16;5071417;28;20310;-76
2023/01/27 07:25:24;;;;;;;21.23;9.90;;;;;;;0.26;100.00;99761.78;5071342;28;20257;-77
2023/01/27 07:27:50;;;;;;;21.93;9.83;;;;;;;0.19;100.00;99766.69;5071393;28;20276;-75
2023/01/27 07:30:16;;;;;;;20.40;10.03;;;;;;;0.15;100.00;99769.66;5071105;28;20028;-74
2023/01/27 07:32:42;;;;;;;24.50;10.33;;;;;;;0.18;100.00;99765.00;5071288;28;20044;-76
2023/01/27 07:35:07;;;;;;;21.37;10.80;;;;;;;0.16;100.00;99772.16;5071490;28;20029;-77
2023/01/27 07:37:33;;;;;;;21.87;9.43;;;;;;;0.19;100.00;99781.59;5071438;28;20028;-77
2023/01/27 07:39:58;;;;;;;22.87;10.30;;;;;;;0.23;100.00;99770.72;5071682;28;20032;-77
2023/01/27 07:42:24;;;;;;;23.30;10.43;;;;;;;0.23;100.00;99769.94;5071423;28;20033;-77
2023/01/27 07:44:51;;;;;;;20.07;10.13;;;;;;;0.24;100.00;99775.03;5071278;28;20043;-76
2023/01/27 07:47:17;;;;;;;20.93;10.80;;;;;;;0.21;100.00;99774.44;5071185;28;20127;-76
2023/01/27 07:49:42;;;;;;;21.47;10.57;;;;;;;0.18;100.00;99785.19;5071222;28;20369;-76
2023/01/27 07:52:08;;;;;;;22.57;10.77;;;;;;;0.19;100.00;99776.34;5071123;28;20032;-77
2023/01/27 07:54:36;;;;;;;21.63;10.73;;;;;;;0.28;100.00;99784.38;5071228;28;20040;-77
2023/01/27 07:57:01;;;;;;;23.73;10.73;;;;;;;0.31;100.00;99781.53;5070900;28;20043;-75
2023/01/27 07:59:27;;;;;;;20.80;10.10;;;;;;;0.28;100.00;99779.13;5070711;28;20285;-75
2023/01/27 08:01:53;;;;;;;22.63;10.73;;;;;;;0.20;100.00;99784.13;5070931;28;20028;-75
2023/01/27 08:04:18;;;;;;;23.57;10.90;;;;;;;0.25;100.00;99781.97;5052988;28;20261;-76
2023/01/27 08:06:44;;;;;;;20.53;10.20;;;;;;;0.36;100.00;99791.69;5070998;28;20041;-77
2023/01/27 08:09:10;;;;;;;20.60;10.30;;;;;;;0.28;100.00;99786.16;5070788;28;20119;-76
2023/01/27 08:11:37;;;;;;;21.93;10.10;;;;;;;0.38;100.00;99786.31;5070962;28;20547;-77
2023/01/27 08:14:03;;;;;;;23.03;10.60;;;;;;;0.34;100.00;99788.34;5070960;28;20315;-76
2023/01/27 08:16:36;;;;;;;22.00;11.17;;;;;;;0.38;100.00;99784.50;5071082;28;20261;-77
2023/01/27 08:19:04;;;;;;;20.25;9.93;;;;;;;0.34;100.00;99796.25;5072061;28;20067;-76
2023/01/27 08:21:31;;;;;;;24.40;11.67;;;;;;;0.41;100.00;99797.44;5074564;28;20051;-76
2023/01/27 08:23:58;;;;;;;24.33;10.80;;;;;;;0.42;100.00;99793.03;5075002;28;20323;-79
2023/01/27 08:26:24;;;;;;;23.47;10.60;;;;;;;0.41;100.00;99792.19;5075090;28;20257;-78
2023/01/27 08:28:51;;;;;;;22.53;11.53;;;;;;;0.41;100.00;99792.19;5075216;28;20815;-78
2023/01/27 08:31:16;;;;;;;23.97;10.70;;;;;;;0.38;100.00;99794.19;5075140;28;20285;-77
2023/01/27 08:33:45;;;;;;;22.37;10.93;;;;;;;0.50;100.00;99798.53;5075151;28;20601;-77
2023/01/27 08:36:14;;;;;;;21.37;10.57;;;;;;;0.41;100.00;99793.97;5074766;28;20056;-77
2023/01/27 08:38:41;;;;;;;23.03;11.23;;;;;;;0.53;100.00;99796.50;5074800;28;20674;-77
2023/01/27 08:41:12;;;;;;;23.50;10.97;;;;;;;0.53;100.00;99795.66;5074656;28;20264;-77
2023/01/27 08:43:48;;;;;;;24.30;10.87;;;;;;;0.58;100.00;99804.03;5074734;28;20276;-77
2023/01/27 08:46:13;;;;;;;23.37;10.50;;;;;;;0.67;100.00;99803.34;5074490;28;20249;-76
2023/01/27 08:48:40;;;;;;;23.03;10.83;;;;;;;0.60;100.00;99797.69;5074459;28;20597;-77
2023/01/27 08:51:06;;;;;;;24.17;11.17;;;;;;;0.65;100.00;99811.34;5074383;28;20025;-77
2023/01/27 08:53:33;;;;;;;25.40;12.27;;;;;;;0.66;100.00;99812.19;5074215;28;20751;-77
2023/01/27 08:56:03;;;;;;;24.47;12.27;;;;;;;0.70;100.00;99810.97;5074424;28;20362;-77
2023/01/27 08:58:28;;;;;;;22.10;11.10;;;;;;;0.70;100.00;99816.25;5073898;28;20747;-77
2023/01/27 09:00:59;;;;;;;25.23;12.53;;;;;;;0.71;100.00;99810.88;5074327;28;20310;-77
2023/01/27 09:03:24;;;;;;;25.33;12.60;;;;;;;0.68;100.00;99808.50;5074081;28;20029;-77
2023/01/27 09:05:50;;;;;;;28.50;12.70;;;;;;;0.73;100.00;99819.50;5073403;28;20261;-77
2023/01/27 09:08:15;;;;;;;26.57;12.07;;;;;;;0.64;100.00;99822.00;5055634;28;20024;-77
2023/01/27 09:10:42;;;;;;;23.20;12.20;;;;;;;0.55;100.00;99812.19;5073824;28;20029;-76
2023/01/27 09:13:08;;;;;;;24.87;12.83;;;;;;;0.58;100.00;99817.19;5073722;28;20055;-77
2023/01/27 09:15:37;;;;;;;27.33;12.60;;;;;;;0.60;100.00;99828.44;5073836;28;20791;-77
2023/01/27 09:18:03;;;;;;;28.53;13.23;;;;;;;0.56;100.00;99822.59;5040396;28;20270;-77
2023/01/27 09:20:30;;;;;;;28.27;12.90;;;;;;;0.53;100.00;99828.06;5069558;28;20269;-77
2023/01/27 09:22:58;;;;;;;27.80;13.63;;;;;;;0.48;100.00;99821.47;5067926;28;20257;-77
2023/01/27 09:25:23;;;;;;;26.67;13.27;;;;;;;0.53;100.00;99824.59;5069853;28;20253;-77
2023/01/27 09:27:54;;;;;;;29.07;14.03;;;;;;;0.53;100.00;99830.69;5070110;28;20398;-77
2023/01/27 09:30:20;;;;;;;25.80;13.13;;;;;;;0.55;100.00;99830.59;5058438;28;20090;-77
2023/01/27 09:32:46;;;;;;;30.07;14.13;;;;;;;0.48;100.00;99829.34;5070895;28;20323;-77
2023/01/27 09:35:11;;;;;;;30.47;13.90;;;;;;;0.40;100.00;99827.31;5060963;28;20273;-77
2023/01/27 09:37:47;;;;;;;29.73;13.70;;;;;;;0.53;100.00;99829.84;5071266;28;20028;-77
2023/01/27 09:40:32;;;;;;;28.17;11.77;;;;;;;0.55;100.00;99830.59;5068057;28;20020;-77
2023/01/27 09:43:28;;;;;;;26.37;12.23;;;;;;;0.57;100.00;99836.56;5069460;28;20265;-77
2023/01/27 09:45:53;;;;;;;27.93;13.10;;;;;;;0.57;100.00;99833.94;5027186;28;20281;-77
2023/01/27 09:48:25;;;;;;;27.97;13.37;;;;;;;0.66;100.00;99831.44;5071822;28;20364;-76
2023/01/27 09:51:18;;;;;;;29.40;13.63;;;;;;;0.58;100.00;99828.53;5069923;28;20021;-77
2023/01/27 09:54:23;;;;;;;28.63;12.93;;;;;;;0.55;100.00;99822.69;5071769;28;20261;-74
2023/01/27 09:56:55;;;;;;;28.80;13.27;;;;;;;0.51;100.00;99826.50;5045255;28;20041;-77
2023/01/27 09:59:45;;;;;;;28.40;13.10;;;;;;;0.60;100.00;99829.25;5065132;28;20372;-77
2023/01/27 10:02:35;;;;;;;28.20;13.23;;;;;;;0.64;100.00;99830.72;5055049;28;20276;-77
2023/01/27 10:05:31;;;;;;;30.33;13.23;;;;;;;0.64;100.00;99828.09;5073111;28;20633;-77
2023/01/27 10:08:17;;;;;;;28.97;13.53;;;;;;;0.70;100.00;99830.22;5055939;28;20756;-77
2023/01/27 10:11:10;;;;;;;28.43;13.53;;;;;;;0.72;100.00;99830.13;5073855;28;20285;-77
2023/01/27 10:13:53;;;;;;;31.57;14.13;;;;;;;0.61;100.00;99827.47;5074059;28;20780;-77
2023/01/27 10:16:40;;;;;;;28.80;13.07;;;;;;;0.59;100.00;99830.22;5073770;28;20331;-77
2023/01/27 10:19:20;;;;;;;27.90;14.03;;;;;;;0.64;100.00;99820.19;5055177;28;20257;-77
2023/01/27 10:21:55;;;;;;;26.40;11.77;;;;;;;0.55;100.00;99823.53;5073047;28;20261;-75
2023/01/27 10:24:55;;;;;;;29.13;14.17;;;;;;;0.56;100.00;99827.00;5069129;28;20719;-75
2023/01/27 10:27:23;;;;;;;30.23;12.77;;;;;;;0.58;100.00;99825.91;5034905;28;21080;-76
2023/01/27 10:29:56;;;;;;;33.50;13.60;;;;;;;0.53;100.00;99816.72;5034923;28;20339;-78
2023/01/27 10:32:25;;;;;;;28.97;13.63;;;;;;;0.56;100.00;99819.94;5053077;28;20262;-77
2023/01/27 10:34:56;;;;;;;31.07;13.50;;;;;;;0.60;100.00;99815.28;5034784;28;20270;-77
2023/01/27 10:37:34;;;;;;;31.00;13.70;;;;;;;0.56;100.00;99813.84;5046397;28;20755;-76
2023/01/27 10:40:22;;;;;;;28.47;13.67;;;;;;;0.46;100.00;99802.38;5072714;28;20245;-77
2023/01/27 10:43:03;;;;;;;35.93;16.33;;;;;;;0.63;100.00;99809.78;5071499;28;21112;-76
2023/01/27 10:45:39;;;;;;;30.70;14.17;;;;;;;0.55;100.00;99802.50;5050702;28;20837;-76
2023/01/27 10:48:32;;;;;;;31.37;14.03;;;;;;;0.61;100.00;99802.00;5052108;28;20266;-76
2023/01/27 10:51:08;;;;;;;28.57;13.97;;;;;;;0.60;100.00;99795.06;5050600;28;20282;-76
2023/01/27 10:53:49;;;;;;;32.07;14.43;;;;;;;0.70;100.00;99809.19;5052010;28;20261;-75
2023/01/27 10:56:51;;;;;;;32.67;14.63;;;;;;;0.80;100.00;99806.72;5050709;28;20269;-74
2023/01/27 11:28:21;;;;;;;31.10;13.27;;;;;;;0.65;100.00;99792.94;4970846;28;20042;-76
2023/01/27 11:31:07;;;;;;;28.53;12.37;;;;;;;0.62;100.00;99789.69;4970499;28;20292;-76
2023/01/27 11:33:47;;;;;;;32.80;13.63;;;;;;;0.62;100.00;99787.91;4970860;28;20774;-77
2023/01/27 11:36:13;;;;;;;30.00;12.47;;;;;;;0.68;100.00;99784.00;4970644;28;20333;-76
2023/01/27 11:38:39;;;;;;;31.73;13.83;;;;;;;0.74;100.00;99780.88;4970528;28;20265;-76
2023/01/27 11:41:05;;;;;;;31.07;13.73;;;;;;;0.71;100.00;99779.31;4970676;28;20261;-75
2023/01/27 11:43:36;;;;;;;26.13;12.83;;;;;;;0.64;100.00;99790.44;4970019;28;20045;-75
2023/01/27 11:46:06;;;;;;;27.57;13.73;;;;;;;0.63;100.00;99788.75;4953195;28;20070;-76
2023/01/27 11:48:45;;;;;;;30.13;13.50;;;;;;;0.70;100.00;99782.88;4969975;28;20810;-76
2023/01/27 11:51:38;;;;;;;26.83;12.37;;;;;;;0.62;100.00;99785.28;4970255;28;20289;-76
2023/01/27 11:54:12;;;;;;;29.13;13.20;;;;;;;0.68;100.00;99790.09;4968933;28;20272;-76
2023/01/27 11:56:43;;;;;;;25.87;12.73;;;;;;;0.70;100.00;99782.88;4974159;28;20272;-76
2023/01/27 11:59:44;;;;;;;27.47;12.53;;;;;;;0.61;100.00;99767.81;4974331;28;20316;-76
2023/01/27 12:02:31;;;;;;;29.43;12.60;;;;;;;0.66;100.00;99781.47;4919856;28;20775;-76
2023/01/27 12:05:17;;;;;;;28.37;12.40;;;;;;;0.59;100.00;99780.25;4993238;28;20300;-76
2023/01/27 12:07:54;;;;;;;28.63;13.30;;;;;;;0.57;100.00;99776.94;4993419;28;20343;-76
2023/01/27 12:10:28;;;;;;;31.07;13.90;;;;;;;0.59;100.00;99774.16;4993363;28;20279;-76
2023/01/27 12:12:55;;;;;;;27.53;13.63;;;;;;;0.65;100.00;99778.97;4976643;28;20691;-76
2023/01/27 12:15:25;;;;;;;34.97;16.33;;;;;;;0.70;100.00;99782.06;4993353;28;20298;-77
2023/01/27 12:18:11;;;;;;;27.20;11.93;;;;;;;0.70;100.00;99771.53;4992603;28;20698;-77
2023/01/27 12:20:41;;;;;;;31.70;13.87;;;;;;;0.67;100.00;99788.41;4993467;28;20744;-77
2023/01/27 12:23:35;;;;;;;32.07;14.03;;;;;;;0.67;100.00;99761.28;4993221;28;20296;-77
2023/01/27 12:26:06;;;;;;;27.73;13.43;;;;;;;0.67;100.00;99774.41;4993101;28;20318;-77
2023/01/27 12:28:40;;;;;;;28.93;13.60;;;;;;;0.66;100.00;99759.59;4992886;28;20437;-77
2023/01/27 12:31:23;;;;;;;28.13;13.23;;;;;;;0.68;100.00;99757.69;4976469;28;20798;-77
2023/01/27 12:34:04;;;;;;;26.30;13.13;;;;;;;0.72;100.00;99759.94;4993055;28;20030;-77
2023/01/27 12:36:38;;;;;;;29.17;13.17;;;;;;;0.73;100.00;99766.88;4992802;28;20038;-77
2023/01/27 12:39:03;;;;;;;29.83;14.13;;;;;;;0.72;100.00;99756.47;5054093;28;20601;-77